KMGE/MGE METAR and TAF weather

Enter ICAO airport designator
Station Type Date Time Source
KMGE METAR 2020/07/15 01:56 UTC NOAA

KMGE 150156Z 22003KT 10SM FEW065 FEW100 28/19 A3003 RMK AO2A SLP158 T02830189 $


Station Type Date Time Source
KMGE Decoded METAR 2020/07/15 01:56 UTC NOAA

Marietta / Dobbins Air Force Base, GA, United States (KMGE) 33-55N 084-31W 326M
Jul 14, 2020 - 09:56 PM EDT / 2020.07.15 0156 UTC
Wind: from the SW (220 degrees) at 3 MPH (3 KT):0
Visibility: 10 mile(s):0
Sky conditions: mostly clear
Temperature: 82.9 F (28.3 C)
Dew Point: 66.0 F (18.9 C)
Relative Humidity: 56%
Pressure (altimeter): 30.03 in. Hg (1016 hPa)
ob: KMGE 150156Z 22003KT 10SM FEW065 FEW100 28/19 A3003 RMK AO2A SLP158 T02830189
cycle: 2

Station Type Date Time Source
KMGE TAF 2020/07/14 21:06 UTC NOAA

TAF KMGE 142100Z 1421/1603 VRB05KT 9999 SCT060 SCT100 QNH2997INS
BECMG 1502/1503 VRB05KT 9999 FEW100 QNH3000INS
BECMG 1514/1515 08007KT 9999 SCT040 BKN250 QNH3002INS TX34/1521Z TN24/1511Z

Example: see airport list